Time;durP1;ratioP1;P1;durP2;ratioP2;P2;SDS_P1;SDS_P2;PMS_P1;PMS_P2;Temp;Humidity;BMP_temperature;BMP_pressure;BME280_temperature;BME280_humidity;BME280_pressure;Samples;Min_cycle;Max_cycle;Signal;HPM_P1;HPM_P2
2022/07/28 00:03:13;;;;;;;6.82;4.35;;;;;;;20.05;47.64;97079.13;10231313;28;20428;-58
2022/07/28 00:08:32;;;;;;;6.72;4.20;;;;;;;20.05;47.53;97079.94;10206314;29;20063;-58
2022/07/28 00:13:52;;;;;;;5.80;3.80;;;;;;;20.03;47.28;97074.06;10218176;29;20056;-58
2022/07/28 00:19:11;;;;;;;5.45;3.65;;;;;;;19.99;47.31;97077.72;10217519;29;20059;-58
2022/07/28 00:24:31;;;;;;;5.88;3.45;;;;;;;19.96;47.39;97076.44;10230262;28;20054;-58
2022/07/28 00:29:52;;;;;;;5.68;3.65;;;;;;;19.95;47.46;97069.44;10217797;29;20055;-57
2022/07/28 00:35:11;;;;;;;11.73;3.25;;;;;;;19.96;47.37;97065.63;10230051;28;20048;-58
2022/07/28 00:46:28;;;;;;;3.50;2.53;;;;;;;19.94;47.32;97057.84;10068551;29;20057;-58
2022/07/28 00:51:48;;;;;;;5.53;2.75;;;;;;;19.93;47.14;97058.97;10203021;29;20056;-58
2022/07/28 00:57:07;;;;;;;5.15;2.92;;;;;;;19.92;47.20;97051.16;10216548;29;20059;-58
2022/07/28 01:02:27;;;;;;;3.53;2.70;;;;;;;19.90;47.13;97062.28;10216884;29;20059;-57
2022/07/28 01:08:09;;;;;;;5.63;2.85;;;;;;;19.90;46.92;97056.09;10215960;29;20111;-58
2022/07/28 01:13:38;;;;;;;4.70;2.30;;;;;;;19.90;47.16;97061.50;10217095;28;20058;-58
2022/07/28 01:19:04;;;;;;;3.63;2.10;;;;;;;19.89;46.88;97059.91;10202253;29;20060;-57
2022/07/28 01:24:32;;;;;;;4.03;2.30;;;;;;;19.85;46.97;97059.75;10213995;28;20055;-58
2022/07/28 01:29:55;;;;;;;3.67;2.33;;;;;;;19.84;46.97;97063.59;10190868;29;20059;-58
2022/07/28 01:35:22;;;;;;;3.83;2.03;;;;;;;19.83;47.01;97061.97;10215144;29;20067;-58
2022/07/28 01:40:44;;;;;;;4.17;2.30;;;;;;;19.83;46.95;97053.09;10213221;28;20047;-58
2022/07/28 01:46:04;;;;;;;5.50;2.15;;;;;;;19.81;46.86;97056.09;10203675;29;20055;-58
2022/07/28 01:51:26;;;;;;;3.17;1.83;;;;;;;19.78;46.70;97059.47;10200307;29;20055;-58
2022/07/28 01:56:46;;;;;;;5.30;2.15;;;;;;;19.77;46.70;97048.94;10200064;29;20060;-58
2022/07/28 02:02:06;;;;;;;3.38;2.08;;;;;;;19.77;46.67;97054.34;10215095;28;20051;-58
2022/07/28 02:07:26;;;;;;;3.72;2.22;;;;;;;19.74;46.67;97048.47;10213971;29;20070;-58
2022/07/28 02:12:47;;;;;;;4.07;2.08;;;;;;;19.73;46.59;97056.91;10186141;29;20389;-58
2022/07/28 02:18:09;;;;;;;2.85;2.10;;;;;;;19.71;46.38;97040.19;10198663;29;20059;-58
2022/07/28 02:23:28;;;;;;;3.38;2.22;;;;;;;19.69;46.38;97051.31;10210807;29;20059;-58
2022/07/28 02:28:51;;;;;;;2.72;1.77;;;;;;;19.67;46.33;97050.03;10213646;29;20055;-57
2022/07/28 02:34:12;;;;;;;2.80;1.83;;;;;;;19.67;46.54;97061.63;10196152;29;20066;-58
2022/07/28 02:39:52;;;;;;;2.85;2.08;;;;;;;19.66;46.16;97068.16;10212696;29;20055;-57
2022/07/28 02:45:15;;;;;;;5.28;2.08;;;;;;;19.64;46.41;97067.69;10212281;29;20064;-58
2022/07/28 02:50:34;;;;;;;2.33;1.75;;;;;;;19.63;46.38;97062.59;10198421;29;20056;-58
2022/07/28 02:55:54;;;;;;;4.70;2.05;;;;;;;19.60;46.22;97057.81;10225354;28;20062;-58
2022/07/28 03:01:16;;;;;;;3.22;1.90;;;;;;;19.58;46.66;97070.84;10212355;29;20065;-58
2022/07/28 03:06:36;;;;;;;2.55;1.77;;;;;;;19.58;46.32;97074.34;10197899;29;20055;-58
2022/07/28 03:11:55;;;;;;;3.38;1.90;;;;;;;19.59;46.21;97072.47;10197807;29;20059;-57
2022/07/28 03:17:15;;;;;;;2.67;2.08;;;;;;;19.56;46.19;97068.47;10211415;29;20504;-58
2022/07/28 03:22:34;;;;;;;2.22;1.77;;;;;;;19.56;46.21;97071.97;10212629;29;20048;-55
2022/07/28 03:27:55;;;;;;;3.55;1.85;;;;;;;19.54;46.34;97087.72;10201374;29;20060;-58
2022/07/28 03:33:14;;;;;;;3.15;1.90;;;;;;;19.54;46.10;97079.63;10197809;29;20055;-58
2022/07/28 03:38:45;;;;;;;4.53;1.70;;;;;;;19.52;46.07;97081.03;10211322;29;20397;-57
2022/07/28 03:44:04;;;;;;;2.42;1.77;;;;;;;19.49;45.98;97071.66;10197675;29;20071;-57
2022/07/28 03:49:24;;;;;;;1.85;1.40;;;;;;;19.49;46.15;97066.25;10197362;29;20448;-57
2022/07/28 03:54:44;;;;;;;2.90;1.55;;;;;;;19.49;46.11;97068.16;10216063;29;20063;-58
2022/07/28 04:00:03;;;;;;;2.17;1.60;;;;;;;19.46;46.20;97064.16;10218752;29;20055;-58
2022/07/28 04:05:31;;;;;;;2.50;1.40;;;;;;;19.46;46.26;97072.28;10231448;28;20524;-58
2022/07/28 04:10:52;;;;;;;1.92;1.40;;;;;;;19.47;46.21;97073.09;10218683;29;20346;-58
2022/07/28 04:16:11;;;;;;;1.88;1.48;;;;;;;19.47;46.29;97081.97;10218039;29;20060;-58
2022/07/28 04:21:30;;;;;;;2.40;1.30;;;;;;;19.50;46.34;97081.38;10218049;29;20086;-58
2022/07/28 04:26:49;;;;;;;2.17;1.45;;;;;;;19.36;46.07;97070.66;10218028;29;20056;-57
2022/07/28 04:32:09;;;;;;;2.50;1.45;;;;;;;19.21;46.31;97062.22;10230290;28;20055;-58
2022/07/28 04:37:28;;;;;;;1.70;1.40;;;;;;;19.14;46.64;97063.50;10229949;28;20111;-57
2022/07/28 04:42:47;;;;;;;4.38;1.33;;;;;;;19.16;46.91;97071.28;10216554;29;20067;-58
2022/07/28 04:48:07;;;;;;;2.22;1.45;;;;;;;19.12;47.08;97065.72;10202797;29;20068;-58
2022/07/28 04:53:28;;;;;;;3.20;1.60;;;;;;;19.05;47.53;97078.91;10216829;29;20059;-58
2022/07/28 04:58:47;;;;;;;3.55;1.73;;;;;;;19.01;47.78;97080.63;10204517;29;20063;-58
2022/07/28 05:04:06;;;;;;;3.75;1.85;;;;;;;19.02;48.10;97086.84;10215508;29;20055;-58
2022/07/28 05:09:26;;;;;;;3.45;1.90;;;;;;;19.06;48.36;97096.69;10216354;29;20055;-57
2022/07/28 05:14:45;;;;;;;3.67;1.98;;;;;;;19.11;48.64;97093.84;10215652;29;21769;-58
2022/07/28 05:20:07;;;;;;;3.05;2.20;;;;;;;19.15;48.55;97096.69;10215834;29;20052;-57
2022/07/28 05:25:26;;;;;;;3.80;1.98;;;;;;;19.16;48.81;97090.97;10215693;29;20060;-57
2022/07/28 05:30:46;;;;;;;3.30;2.00;;;;;;;19.19;48.76;97094.16;10204531;29;20063;-58
2022/07/28 05:36:06;;;;;;;4.45;2.17;;;;;;;19.19;48.48;97092.28;10215389;29;20426;-58
2022/07/28 05:41:26;;;;;;;5.43;2.40;;;;;;;19.19;48.61;97097.69;10200818;29;20060;-57
2022/07/28 05:46:45;;;;;;;6.53;2.28;;;;;;;19.21;48.79;97100.03;10227302;28;20059;-57
2022/07/28 05:52:04;;;;;;;5.13;2.25;;;;;;;19.21;48.84;97100.84;10227183;28;20452;-57
2022/07/28 05:57:24;;;;;;;3.83;2.03;;;;;;;19.23;49.15;97103.22;10214547;29;20066;-58
2022/07/28 06:02:46;;;;;;;4.18;2.00;;;;;;;19.23;49.14;97108.63;10202411;29;20055;-58
2022/07/28 06:08:05;;;;;;;3.97;2.00;;;;;;;19.25;49.29;97103.69;10214051;29;20070;-58
2022/07/28 06:13:24;;;;;;;4.10;2.10;;;;;;;19.29;49.36;97112.78;10226604;28;20062;-58
2022/07/28 06:18:44;;;;;;;4.50;1.98;;;;;;;19.30;49.27;97114.38;10212696;29;20129;-58
2022/07/28 06:24:04;;;;;;;2.85;1.60;;;;;;;19.32;49.69;97107.53;10213433;29;20055;-58
2022/07/28 06:29:23;;;;;;;2.75;1.58;;;;;;;19.36;49.45;97123.91;10213355;29;20134;-58
2022/07/28 06:34:42;;;;;;;3.92;1.42;;;;;;;19.37;49.37;97125.53;10212367;29;20504;-57
2022/07/28 06:40:02;;;;;;;2.65;1.50;;;;;;;19.39;49.46;97123.31;10212308;29;20056;-58
2022/07/28 06:45:21;;;;;;;3.08;1.60;;;;;;;19.42;49.34;97121.88;10212847;29;20071;-57
2022/07/28 06:50:41;;;;;;;3.13;1.40;;;;;;;19.41;49.11;97121.06;10201143;29;20472;-58
2022/07/28 06:56:03;;;;;;;7.70;1.52;;;;;;;19.41;49.24;97115.66;10224600;28;20054;-57
2022/07/28 07:01:22;;;;;;;6.82;1.80;;;;;;;19.44;49.59;97125.84;10208027;29;20064;-58
2022/07/28 07:06:42;;;;;;;5.82;1.50;;;;;;;19.46;49.49;97123.59;10211833;29;20059;-57
2022/07/28 07:12:02;;;;;;;5.70;1.55;;;;;;;19.49;49.84;97125.69;10212281;29;20452;-58
2022/07/28 07:17:22;;;;;;;4.10;1.50;;;;;;;19.51;49.89;97125.38;10196884;29;20067;-58
2022/07/28 07:22:42;;;;;;;7.07;1.60;;;;;;;19.52;50.06;97129.66;10211504;29;20408;-59
2022/07/28 07:28:02;;;;;;;5.68;1.50;;;;;;;19.53;50.03;97131.28;10213417;29;20500;-58
2022/07/28 07:33:21;;;;;;;3.85;1.45;;;;;;;19.53;50.00;97123.16;10232450;28;20051;-58
2022/07/28 07:38:41;;;;;;;3.95;1.30;;;;;;;19.54;50.21;97114.75;10219248;29;20056;-57
2022/07/28 07:44:00;;;;;;;2.85;1.40;;;;;;;19.55;50.23;97110.13;10219083;29;20064;-58
2022/07/28 07:49:20;;;;;;;3.72;1.33;;;;;;;19.55;50.29;97116.31;10219000;29;20059;-59
2022/07/28 07:54:40;;;;;;;3.03;1.40;;;;;;;19.58;50.33;97114.09;10218981;29;20055;-58
2022/07/28 08:00:00;;;;;;;3.17;1.30;;;;;;;19.58;50.45;97114.88;10218643;29;20052;-58
2022/07/28 08:05:19;;;;;;;2.05;1.20;;;;;;;19.58;50.50;97112.19;10208192;29;20075;-59
2022/07/28 08:10:39;;;;;;;2.60;1.30;;;;;;;19.60;50.61;97111.88;10218306;29;20058;-58
2022/07/28 08:15:58;;;;;;;1.60;1.33;;;;;;;19.60;50.57;97122.69;10226392;28;20459;-57
2022/07/28 08:21:18;;;;;;;2.95;1.40;;;;;;;19.59;50.61;97116.50;10230208;29;20071;-58
2022/07/28 08:26:37;;;;;;;1.40;1.10;;;;;;;19.61;50.71;97114.25;10217972;29;20067;-57
2022/07/28 08:31:57;;;;;;;1.98;1.20;;;;;;;19.61;50.87;97113.47;10216895;29;20500;-58
2022/07/28 08:37:17;;;;;;;1.27;0.95;;;;;;;19.61;50.87;97108.84;10215379;29;20082;-58
2022/07/28 08:42:47;;;;;;;1.65;1.30;;;;;;;19.62;50.82;97109.66;10228331;28;20048;-58
2022/07/28 08:48:08;;;;;;;2.85;1.30;;;;;;;19.63;50.94;97105.84;10216703;29;20063;-58
2022/07/28 08:53:29;;;;;;;2.33;1.15;;;;;;;19.63;50.92;97095.03;10202364;29;20072;-59
2022/07/28 08:58:49;;;;;;;2.65;1.30;;;;;;;19.63;51.12;97103.13;10216282;29;20055;-58
2022/07/28 09:04:08;;;;;;;1.75;1.40;;;;;;;19.65;51.15;97100.91;10229183;28;20048;-58
2022/07/28 09:09:28;;;;;;;2.05;1.10;;;;;;;19.64;51.07;97105.53;10216020;29;20063;-58
2022/07/28 09:14:47;;;;;;;2.72;1.23;;;;;;;19.64;51.18;97102.00;10201450;29;20067;-58
2022/07/28 09:20:09;;;;;;;2.50;1.25;;;;;;;19.65;51.24;97087.41;10228400;28;20051;-57
2022/07/28 09:25:29;;;;;;;1.52;1.00;;;;;;;19.66;51.28;97083.56;10215102;29;20512;-58
2022/07/28 09:30:49;;;;;;;2.72;1.55;;;;;;;19.66;51.24;97086.28;10215263;29;20059;-58
2022/07/28 09:36:13;;;;;;;1.83;1.10;;;;;;;19.67;51.32;97079.78;10214685;29;20056;-58
2022/07/28 09:41:57;;;;;;;1.80;1.20;;;;;;;19.68;51.42;97081.34;10208113;29;20052;-59
2022/07/28 09:47:22;;;;;;;1.67;1.10;;;;;;;19.67;51.49;97077.06;10214168;29;20063;-58
2022/07/28 09:52:41;;;;;;;3.10;1.00;;;;;;;19.69;51.52;97082.94;10213980;29;20059;-58
2022/07/28 09:58:08;;;;;;;1.65;1.13;;;;;;;19.69;51.65;97072.13;10226598;28;20496;-56
2022/07/28 10:03:28;;;;;;;1.85;1.30;;;;;;;19.68;51.47;97078.63;10221320;29;20196;-58
2022/07/28 10:08:49;;;;;;;1.30;1.13;;;;;;;19.69;51.58;97069.44;10214149;29;20067;-59
2022/07/28 10:14:12;;;;;;;1.55;1.10;;;;;;;19.69;51.65;97066.72;10226284;28;20062;-58
2022/07/28 10:19:31;;;;;;;2.22;1.23;;;;;;;19.71;51.83;97064.50;10212059;29;20060;-58
2022/07/28 10:24:52;;;;;;;1.63;1.10;;;;;;;19.71;51.75;97059.91;10213567;29;20063;-58
2022/07/28 10:30:12;;;;;;;2.53;1.17;;;;;;;19.71;51.86;97053.69;10213249;29;20060;-58
2022/07/28 10:35:31;;;;;;;1.20;1.10;;;;;;;19.72;51.79;97055.31;10213077;29;20138;-58
2022/07/28 10:40:52;;;;;;;1.48;1.30;;;;;;;19.73;51.98;97048.78;10213609;28;20048;-58
2022/07/28 10:46:11;;;;;;;1.70;1.20;;;;;;;19.72;51.92;97033.72;10220774;28;20055;-59
2022/07/28 10:51:31;;;;;;;1.25;1.00;;;;;;;19.73;51.98;97035.28;10212679;29;20056;-59
2022/07/28 10:56:53;;;;;;;3.10;1.20;;;;;;;19.72;52.07;97023.69;10212397;29;20504;-57
2022/07/28 11:02:59;;;;;;;1.58;1.10;;;;;;;19.73;52.10;97017.16;10206142;29;20052;-58
2022/07/28 11:08:19;;;;;;;1.45;1.00;;;;;;;19.74;52.10;97018.75;10212908;29;20063;-58
2022/07/28 11:13:38;;;;;;;1.52;1.10;;;;;;;19.74;52.10;97017.97;10225214;29;20047;-58
2022/07/28 11:19:01;;;;;;;2.05;1.00;;;;;;;19.73;52.11;97024.47;10211993;29;20531;-58
2022/07/28 11:24:20;;;;;;;1.08;0.93;;;;;;;19.75;52.16;97019.53;10212554;29;20060;-58
2022/07/28 11:29:46;;;;;;;1.83;1.05;;;;;;;19.75;52.16;97025.72;10202128;29;20056;-59
2022/07/28 11:35:07;;;;;;;1.48;1.08;;;;;;;19.76;52.23;97018.44;10212485;29;20056;-59
2022/07/28 11:40:56;;;;;;;1.10;1.00;;;;;;;19.77;52.35;97016.50;10212238;29;20056;-58
2022/07/28 11:46:16;;;;;;;1.17;1.05;;;;;;;19.77;52.37;97009.19;10205326;29;20608;-58
2022/07/28 11:51:35;;;;;;;1.70;1.20;;;;;;;19.78;52.51;97013.50;10211821;29;20416;-58
2022/07/28 11:56:57;;;;;;;1.17;1.08;;;;;;;19.79;52.43;97011.59;10210512;29;20100;-58
2022/07/28 12:02:21;;;;;;;1.55;1.00;;;;;;;19.78;52.39;97005.38;10214745;29;20389;-57
2022/07/28 12:07:47;;;;;;;1.45;1.10;;;;;;;19.79;52.32;96995.38;10224141;29;20538;-58
2022/07/28 12:13:06;;;;;;;1.35;0.90;;;;;;;19.79;52.67;96996.16;10224395;28;20066;-59
2022/07/28 12:18:26;;;;;;;1.20;1.02;;;;;;;19.79;52.56;96990.75;10208200;29;20060;-58
2022/07/28 12:23:46;;;;;;;1.08;1.00;;;;;;;19.81;52.74;96982.31;10204113;29;20066;-58
2022/07/28 12:29:06;;;;;;;1.20;1.10;;;;;;;19.82;52.59;96981.22;10218100;29;20067;-59
2022/07/28 12:34:27;;;;;;;1.15;0.98;;;;;;;19.82;52.62;96981.22;10230610;28;20047;-57
2022/07/28 12:39:49;;;;;;;1.13;1.00;;;;;;;19.82;52.67;96979.31;10217617;29;20106;-59
2022/07/28 12:45:11;;;;;;;0.98;0.88;;;;;;;19.83;52.73;96975.47;10217373;29;20059;-58
2022/07/28 12:50:36;;;;;;;1.10;0.93;;;;;;;19.83;52.80;96974.69;10229808;28;20107;-58
2022/07/28 12:56:01;;;;;;;1.30;1.10;;;;;;;19.84;52.78;96968.16;10229714;28;20412;-58
2022/07/28 13:01:20;;;;;;;0.90;0.90;;;;;;;19.84;52.83;96963.56;10216982;29;20059;-59
2022/07/28 13:06:40;;;;;;;1.38;1.08;;;;;;;19.85;52.82;96961.63;10216202;29;20527;-59
2022/07/28 13:12:00;;;;;;;1.17;1.08;;;;;;;19.85;53.00;96951.59;10206052;29;20056;-58
2022/07/28 13:17:43;;;;;;;0.90;0.90;;;;;;;19.86;52.85;96957.81;10221183;29;20059;-59
2022/07/28 13:23:03;;;;;;;1.40;0.90;;;;;;;19.87;52.97;96948.59;10215081;29;20055;-58
2022/07/28 13:28:26;;;;;;;1.20;0.90;;;;;;;19.88;52.93;96945.56;10227760;28;20056;-58
2022/07/28 13:33:45;;;;;;;1.20;1.10;;;;;;;19.88;53.01;96933.97;10226379;28;20043;-59
2022/07/28 13:39:06;;;;;;;0.88;0.88;;;;;;;19.89;52.89;96933.63;10228105;28;20106;-57
2022/07/28 13:44:26;;;;;;;1.42;1.10;;;;;;;19.88;53.02;96929.34;10214830;29;20115;-58
2022/07/28 13:49:46;;;;;;;1.17;0.90;;;;;;;19.91;53.10;96936.78;10214879;29;20063;-59
2022/07/28 13:55:05;;;;;;;1.27;1.05;;;;;;;19.91;53.20;96923.28;10227537;28;20452;-58
2022/07/28 14:00:25;;;;;;;1.10;1.00;;;;;;;19.92;53.22;96919.47;10200183;29;20060;-59
2022/07/28 14:05:45;;;;;;;1.10;0.90;;;;;;;19.93;53.19;96921.06;10214570;29;20480;-59
2022/07/28 14:11:04;;;;;;;1.40;1.10;;;;;;;19.94;53.40;96916.44;10214335;29;20052;-58
2022/07/28 14:16:23;;;;;;;1.25;1.10;;;;;;;19.95;53.45;96918.84;10213255;29;20068;-58
2022/07/28 14:21:44;;;;;;;1.50;1.10;;;;;;;19.97;53.44;96915.00;10213848;29;20051;-59
2022/07/28 14:27:04;;;;;;;1.40;0.98;;;;;;;19.98;53.55;96917.38;10213714;29;20055;-57
2022/07/28 14:32:23;;;;;;;1.13;1.02;;;;;;;19.98;53.62;96905.78;10213398;29;20136;-59
2022/07/28 14:37:42;;;;;;;1.63;0.93;;;;;;;20.00;53.55;96903.53;10202248;29;20123;-59
2022/07/28 14:43:03;;;;;;;1.00;1.00;;;;;;;20.01;53.60;96894.31;10212493;29;20567;-59
2022/07/28 14:48:23;;;;;;;1.30;1.10;;;;;;;20.03;53.67;96886.66;10212902;29;20068;-59
2022/07/28 14:53:42;;;;;;;1.13;0.95;;;;;;;20.04;53.68;96874.75;10212778;29;20083;-58
2022/07/28 14:59:02;;;;;;;1.42;0.98;;;;;;;20.05;53.70;96879.81;10212815;29;20378;-58
2022/07/28 15:04:21;;;;;;;1.08;0.98;;;;;;;20.07;53.79;96868.66;10225609;28;20393;-58
2022/07/28 15:09:40;;;;;;;0.90;0.90;;;;;;;20.08;53.84;96862.94;10211959;29;20519;-59
2022/07/28 15:15:00;;;;;;;1.20;1.08;;;;;;;20.12;53.97;96865.78;10212543;29;20052;-58
2022/07/28 15:20:19;;;;;;;0.90;0.80;;;;;;;20.14;53.72;96864.31;10224530;29;20111;-59
2022/07/28 15:25:39;;;;;;;0.88;0.88;;;;;;;20.15;53.69;96867.84;10211570;29;20556;-59
2022/07/28 15:30:58;;;;;;;1.00;0.90;;;;;;;20.16;53.70;96861.31;10211415;29;20060;-58
2022/07/28 15:36:18;;;;;;;1.33;1.00;;;;;;;20.16;53.76;96858.59;10212041;29;20135;-59
2022/07/28 15:41:39;;;;;;;0.90;0.90;;;;;;;20.18;53.72;96858.28;10214082;29;20492;-58
2022/07/28 15:46:59;;;;;;;1.10;0.90;;;;;;;20.21;53.74;96860.31;10211335;29;20104;-58
2022/07/28 15:52:18;;;;;;;1.42;1.10;;;;;;;20.21;53.90;96850.31;10206612;29;20059;-59
2022/07/28 15:57:38;;;;;;;0.95;0.90;;;;;;;20.22;53.96;96840.28;10216937;29;20067;-58
2022/07/28 16:02:57;;;;;;;0.80;0.80;;;;;;;20.23;54.03;96842.66;10219150;29;20098;-58
2022/07/28 16:08:18;;;;;;;0.90;0.90;;;;;;;20.23;54.08;96842.66;10218154;29;20055;-58
2022/07/28 16:13:38;;;;;;;1.05;0.93;;;;;;;20.25;54.08;96839.63;10230976;29;20051;-59
2022/07/28 16:18:58;;;;;;;1.63;0.80;;;;;;;20.25;54.29;96832.31;10218822;28;20071;-59
2022/07/28 16:24:17;;;;;;;1.10;1.00;;;;;;;20.26;54.22;96836.56;10206250;29;20114;-59
2022/07/28 16:29:37;;;;;;;1.00;0.90;;;;;;;20.27;54.16;96832.75;10217691;29;20420;-59
2022/07/28 16:34:56;;;;;;;0.88;0.88;;;;;;;20.28;54.16;96828.94;10230170;28;20054;-59
2022/07/28 16:40:15;;;;;;;0.80;0.80;;;;;;;20.29;54.30;96827.03;10206103;29;20060;-58
2022/07/28 16:45:36;;;;;;;0.95;0.85;;;;;;;20.30;54.38;96815.06;10229692;28;20058;-58
2022/07/28 16:50:55;;;;;;;1.10;0.98;;;;;;;20.30;54.44;96823.97;10218248;28;20523;-59
2022/07/28 16:56:17;;;;;;;0.90;0.90;;;;;;;20.31;54.44;96816.69;10216854;29;20126;-59
2022/07/28 17:01:37;;;;;;;1.48;1.00;;;;;;;20.32;54.46;96812.84;10227905;28;20448;-58
2022/07/28 17:06:56;;;;;;;2.30;0.88;;;;;;;20.34;54.60;96826.81;10229228;28;20059;-57
2022/07/28 17:12:15;;;;;;;1.30;1.10;;;;;;;20.34;55.00;96822.19;10216311;29;20078;-59
2022/07/28 17:17:35;;;;;;;1.63;1.05;;;;;;;20.34;55.36;96819.50;10218575;29;20051;-59
2022/07/28 17:22:54;;;;;;;3.78;1.13;;;;;;;20.35;55.66;96831.13;10214405;29;20115;-59
2022/07/28 17:28:14;;;;;;;1.20;1.10;;;;;;;20.35;55.46;96821.09;10204532;29;20066;-59
2022/07/28 17:33:33;;;;;;;1.33;1.10;;;;;;;20.33;55.38;96830.66;10214956;29;20469;-58
2022/07/28 17:38:52;;;;;;;1.85;1.10;;;;;;;20.33;55.30;96830.66;10213582;28;20408;-59
2022/07/28 17:44:11;;;;;;;1.63;1.20;;;;;;;20.32;55.23;96835.25;10227656;29;20052;-59
2022/07/28 17:49:31;;;;;;;2.08;1.10;;;;;;;20.32;55.16;96832.56;10214729;29;20063;-59
2022/07/28 18:00:29;;;;;;;1.77;1.20;;;;;;;20.32;55.01;96824.44;10226692;28;20059;-59
2022/07/28 18:05:48;;;;;;;2.08;1.20;;;;;;;20.33;54.97;96841.50;10214064;29;20291;-59
2022/07/28 18:11:07;;;;;;;1.27;1.10;;;;;;;20.32;54.92;96837.97;10226918;28;20055;-59
2022/07/28 18:16:27;;;;;;;1.90;1.23;;;;;;;20.33;54.83;96850.38;10213686;29;20063;-59
2022/07/28 18:21:46;;;;;;;1.80;1.10;;;;;;;20.33;54.83;96853.09;10202687;29;20492;-58
2022/07/28 18:27:06;;;;;;;1.83;1.10;;;;;;;20.34;54.81;96845.75;10213952;29;20059;-58
2022/07/28 18:32:25;;;;;;;1.30;1.00;;;;;;;20.33;54.83;96847.69;10213583;29;20063;-59
2022/07/28 18:37:45;;;;;;;4.40;1.25;;;;;;;20.33;54.68;96846.91;10212957;29;20110;-58
2022/07/28 18:43:05;;;;;;;1.92;1.20;;;;;;;20.33;54.63;96855.00;10213335;29;20085;-58
2022/07/28 18:48:25;;;;;;;2.20;1.27;;;;;;;20.33;54.52;96858.50;10213218;29;20397;-59
2022/07/28 18:53:44;;;;;;;2.25;1.35;;;;;;;20.32;53.72;96856.91;10225594;28;20051;-59
2022/07/28 18:59:04;;;;;;;2.00;1.70;;;;;;;20.30;52.88;96856.44;10225054;28;20050;-58
2022/07/28 19:04:24;;;;;;;2.80;1.65;;;;;;;20.30;52.15;96861.06;10212500;29;20071;-59
2022/07/28 19:09:43;;;;;;;4.18;1.50;;;;;;;20.28;51.76;96872.22;10212515;29;20442;-59
2022/07/28 19:15:03;;;;;;;2.95;1.58;;;;;;;20.27;51.36;96876.06;10211852;29;20067;-59
2022/07/28 19:20:22;;;;;;;2.45;1.70;;;;;;;20.27;50.94;96876.06;10212265;29;20408;-59
2022/07/28 19:25:41;;;;;;;1.95;1.45;;;;;;;20.25;50.75;96883.69;10216561;29;20571;-59
2022/07/28 19:31:01;;;;;;;2.65;1.40;;;;;;;20.25;50.27;96897.22;10220190;29;20075;-59
2022/07/28 19:36:21;;;;;;;2.28;1.60;;;;;;;20.24;50.21;96902.94;10220018;29;20063;-59
2022/07/28 19:41:40;;;;;;;5.53;1.73;;;;;;;20.23;50.21;96902.16;10219612;29;20056;-59
2022/07/28 19:47:00;;;;;;;5.07;3.05;;;;;;;20.24;49.83;96903.75;10219495;29;20067;-59
2022/07/28 19:52:19;;;;;;;9.35;6.43;;;;;;;20.22;49.72;96903.28;10231978;28;20051;-57
2022/07/28 19:57:44;;;;;;;9.15;5.90;;;;;;;20.23;49.60;96909.47;10219450;29;20055;-59
2022/07/28 20:03:06;;;;;;;5.82;3.47;;;;;;;20.22;49.58;96905.19;10215315;29;20056;-57
2022/07/28 20:08:25;;;;;;;3.50;2.72;;;;;;;20.22;49.72;96905.19;10218606;29;20055;-59
2022/07/28 20:13:44;;;;;;;3.53;2.30;;;;;;;20.21;49.30;96909.81;10231296;28;20043;-59
2022/07/28 20:19:04;;;;;;;3.83;2.15;;;;;;;20.20;49.07;96900.09;10217536;29;20071;-57
2022/07/28 20:24:24;;;;;;;2.97;2.20;;;;;;;20.20;49.50;96897.41;10217645;29;20534;-59
2022/07/28 20:29:43;;;;;;;3.25;2.00;;;;;;;20.20;49.54;96900.09;10203540;29;21009;-59
2022/07/28 20:35:06;;;;;;;6.43;2.05;;;;;;;20.20;48.72;96892.00;10230067;29;20393;-59
2022/07/28 20:40:26;;;;;;;2.30;1.60;;;;;;;20.19;48.43;96903.13;10230327;29;20059;-57
2022/07/28 20:45:45;;;;;;;4.93;2.10;;;;;;;20.19;48.41;96895.81;10209094;29;20074;-59
2022/07/28 20:51:05;;;;;;;1.77;1.30;;;;;;;20.19;48.60;96897.72;10217175;29;20052;-58
2022/07/28 20:56:26;;;;;;;1.50;1.30;;;;;;;20.19;48.66;96895.00;10217197;29;20134;-59
2022/07/28 21:01:45;;;;;;;2.10;1.55;;;;;;;20.18;48.81;96905.03;10229623;28;20056;-59
2022/07/28 21:07:04;;;;;;;2.17;1.42;;;;;;;20.19;49.00;96906.66;10216687;29;20111;-58
2022/07/28 21:12:24;;;;;;;2.90;1.60;;;;;;;20.21;49.10;96909.81;10216735;29;20107;-59
2022/07/28 21:17:43;;;;;;;1.85;1.40;;;;;;;20.20;49.26;96897.41;10216911;29;20055;-59
2022/07/28 21:23:03;;;;;;;2.80;1.35;;;;;;;20.20;49.44;96904.72;10216248;29;20365;-59
2022/07/28 21:34:00;;;;;;;2.20;1.53;;;;;;;20.19;49.81;96889.59;10216083;29;20067;-59
2022/07/28 21:39:20;;;;;;;2.17;1.50;;;;;;;20.20;49.74;96896.63;10200770;29;20556;-59
2022/07/28 21:44:39;;;;;;;2.70;1.50;;;;;;;20.20;50.00;96886.56;10215386;29;20063;-59
2022/07/28 21:49:58;;;;;;;2.45;1.40;;;;;;;20.20;50.09;96892.00;10227017;28;20066;-58
2022/07/28 21:55:17;;;;;;;1.42;1.27;;;;;;;20.19;50.23;96897.72;10214903;29;20071;-57
2022/07/28 22:00:37;;;;;;;1.77;1.45;;;;;;;20.20;50.48;96902.81;10214169;28;20044;-59
2022/07/28 22:05:56;;;;;;;1.77;1.55;;;;;;;20.17;50.58;96898.06;10214697;29;20055;-58
2022/07/28 22:11:16;;;;;;;3.17;1.70;;;;;;;20.19;50.56;96905.84;10214386;29;20054;-59
2022/07/28 22:16:35;;;;;;;1.88;1.35;;;;;;;20.17;50.57;96906.19;10203165;29;20075;-58
2022/07/28 22:21:55;;;;;;;3.65;1.63;;;;;;;20.17;50.58;96905.38;10214052;29;20099;-59
2022/07/28 22:27:14;;;;;;;2.05;1.58;;;;;;;20.18;50.61;96932.09;10199654;29;20114;-59
2022/07/28 22:32:34;;;;;;;2.00;1.38;;;;;;;20.18;50.57;96917.78;10226553;28;20056;-57
2022/07/28 22:37:54;;;;;;;3.75;1.50;;;;;;;20.17;50.62;96908.88;10213827;29;20060;-59
2022/07/28 22:43:13;;;;;;;4.25;1.70;;;;;;;20.17;50.68;96903.47;10212515;29;20055;-58
2022/07/28 22:48:32;;;;;;;2.35;1.33;;;;;;;20.16;50.71;96912.69;10213282;29;20056;-59
2022/07/28 22:53:52;;;;;;;1.83;1.35;;;;;;;20.15;50.70;96916.53;10212567;29;20055;-59
2022/07/28 22:59:12;;;;;;;2.10;1.48;;;;;;;20.17;50.76;96929.72;10212912;29;20058;-58
2022/07/28 23:04:31;;;;;;;2.72;1.48;;;;;;;20.15;50.68;96930.06;10213051;29;20063;-59
2022/07/28 23:09:50;;;;;;;1.77;1.40;;;;;;;20.16;50.61;96945.16;10212677;29;20059;-58
2022/07/28 23:15:10;;;;;;;1.85;1.55;;;;;;;20.16;50.56;96937.03;10198319;29;20064;-56
2022/07/28 23:20:30;;;;;;;2.33;1.45;;;;;;;20.14;50.38;96947.38;10212627;29;20073;-58
2022/07/28 23:25:49;;;;;;;1.73;1.55;;;;;;;20.14;50.25;96940.06;10202684;29;20122;-59
2022/07/28 23:31:08;;;;;;;3.50;1.45;;;;;;;20.14;50.19;96952.78;10211880;29;20445;-58
2022/07/28 23:36:28;;;;;;;3.13;1.60;;;;;;;20.14;49.97;96955.50;10212577;29;20060;-58
2022/07/28 23:41:47;;;;;;;3.25;1.63;;;;;;;20.12;49.95;96947.72;10224855;29;20062;-59
2022/07/28 23:47:06;;;;;;;3.38;1.50;;;;;;;20.12;49.99;96949.63;10212195;29;20071;-58
2022/07/28 23:52:26;;;;;;;2.58;1.50;;;;;;;20.11;50.06;96934.50;10211919;29;20048;-58
2022/07/28 23:57:45;;;;;;;3.20;1.60;;;;;;;20.11;50.02;96937.22;10211771;29;20067;-59
